Terminal Aerodrome Forecast
Issued by NWS Twin Cities, MN

Home | Current Version | Previous Version | Graphics & Text | Print | Product List | Glossary On
Versions: 1 2 3 4 5 6 7 8 9 10 11 12 13 14 15 16 17 18
000
FTUS43 KMPX 251100 CCA
TAFEAU
TAF COR
KEAU 251149Z 2512/2612 32009KT P6SM -SN OVC018
     FM251500 30007KT P6SM -SN BKN020 OVC040
     FM251700 26005KT P6SM SCT020 BKN050
     FM260000 15003KT P6SM SCT050 BKN120
     FM261000 09004KT P6SM OVC100=

USA.gov is the U.S. government's official web portal to all federal, state and local government web resources and services.